Impacts METAR Board
IDs:

KLAS - Las Vegas/McCarran I, NV, US

Updated at: 0100 UTC 31 May 2020
Potential Impact None Slight Moderate High
Time 30/13Z 30/14Z 30/15Z 30/16Z 30/17Z 30/18Z 30/19Z 30/20Z 30/21Z 30/22Z 30/23Z 31/00Z 31/01Z
Temp81 82 86 90 92 93 97 98 98 93 92 92 90
Dewpt39 41 42 44 43 43 39 31 28 30 28 26 24
Altim29.83 29.84 29.85 29.85 29.83 29.81 29.79 29.77 29.75 29.76 29.75 29.75 29.74
VIS10 10 10 10 10 10 10 10 10 10 10 10 10
CIG230 -- -- -- -- -- -- 250 250 250 250 250 250
CoverBKNSCTFEWFEWSCTSCTSCTBKNBKNBKNBKNBKNBKN
FltCatVFRVFRVFRVFRVFRVFRVFRVFRVFRVFRVFRVFRVFR
WX--------------------------
WDir20022000190180160180230230220230240
WSpd4 4 0 6 8 7 11 10 15 17 15 14 15
WGst-- -- -- -- -- -- 23 21 23 25 28 19 23
Raw hourly METARs
KLAS 301256Z 20004KT 10SM FEW160 BKN230 27/04 A2983 RMK AO2 SLP071 T02720039
KLAS 301356Z 22004KT 10SM FEW150 SCT200 28/05 A2984 RMK AO2 SLP073 T02780050
KLAS 301456Z 00000KT 10SM FEW150 FEW200 30/06 A2985 RMK AO2 SLP076 ACSL N T03000056 53009
KLAS 301556Z VRB06KT 10SM FEW150 FEW200 32/07 A2985 RMK AO2 SLP076 ACSL N T03220067
KLAS 301656Z 19008KT 10SM FEW200 SCT250 33/06 A2983 RMK AO2 SLP071 T03330061
KLAS 301756Z 18007KT 10SM FEW200 SCT250 34/06 A2981 RMK AO2 SLP063 T03390061 10344 20272 58012
KLAS 301856Z 16011G23KT 10SM FEW200 SCT250 36/04 A2979 RMK AO2 SLP056 T03610039
KLAS 301956Z 18010G21KT 150V230 10SM FEW150 SCT200 BKN250 37/M01 A2977 RMK AO2 SLP047 ACSL NW ACC DSNT NE T03671006
KLAS 302056Z 23015G23KT 10SM FEW150 SCT200 BKN250 37/M02 A2975 RMK AO2 PK WND 19028/2035 SLP042 ACSL DSNT NW ACC DSNT NE T03671022 56019
KLAS 302156Z 23017G25KT 10SM FEW150 BKN250 34/M01 A2976 RMK AO2 PK WND 24028/2130 SLP047 ACSL DSNT NW T03391011
KLAS 302256Z 22015G28KT 10SM FEW150 BKN250 33/M02 A2975 RMK AO2 PK WND 22028/2248 SLP047 ACSL DSNT NW T03331022
KLAS 302356Z 23014G19KT 10SM FEW150 BKN250 33/M03 A2975 RMK AO2 PK WND 24027/2305 SLP046 ACSL DSNT SW AND DSNT NW T03331033 10378 20333 50000
KLAS 310056Z 24015G23KT 10SM FEW150 BKN250 32/M04 A2974 RMK AO2 SLP042 ACSL DSNT SW AND DSNT NW T03221044



Page loaded:  01:51 UTC  |   06:51 PM Pacific  |   07:51 PM Mountain  |   08:51 PM Central  |   09:51 PM Eastern

 

ADVISORIES

FORECASTS

FORECASTS

OBSERVATIONS

USER TOOLS

ABOUT US